KRVS/RVS METAR and TAF weather

Enter ICAO airport designator
Station Type Date Time Source
KRVS METAR 2021/09/24 02:53 UTC NOAA

KRVS 240253Z 00000KT 10SM CLR 17/10 A3004 RMK AO2 SLP179 LAST T01670100 53010


Station Type Date Time Source
KRVS Decoded METAR 2021/09/24 02:53 UTC NOAA

TULSA JONES JR. AIRPORT, OK, United States (KRVS) 36-03N 095-59W 200M
Sep 23, 2021 - 10:53 PM EDT / 2021.09.24 0253 UTC
Wind: Calm:0
Visibility: 10 mile(s):0
Sky conditions: clear
Temperature: 62.1 F (16.7 C)
Dew Point: 50.0 F (10.0 C)
Relative Humidity: 64%
Pressure (altimeter): 30.04 in. Hg (1017 hPa)
Pressure tendency: 0.03 inches (1.0 hPa) higher than three hours ago
ob: KRVS 240253Z 00000KT 10SM CLR 17/10 A3004 RMK AO2 SLP179 LAST T01670100 53010
cycle: 3

Station Type Date Time Source
KRVS TAF 2021/09/23 18:24 UTC NOAA

TAF KRVS 231721Z 2318/2418 20008KT P6SM SKC
FM240000 VRB03KT P6SM SKC
FM241500 19008G18KT P6SM SCT250

Example: see airport list